Terminal Aerodrome Forecast
Issued by NWS Bismarck, ND

Home | Current Version | Previous Version | Graphics & Text | Print | Product List | Glossary On
Versions: 1 2 3 4 5 6 7 8 9 10 11 12 13 14 15 16
000
FTUS43 KBIS 280700 AAA
TAFBIS
TAF AMD
KBIS 280740Z 2808/2906 06003KT P6SM SCT060 OVC100
      TEMPO 2808/2810 BKN045 OVC060
     FM281000 05006KT P6SM VCSH SCT020 OVC045
     FM281200 06007KT P6SM -SN BKN025 OVC040
     FM281400 08008KT 4SM -SN SCT015 OVC025
     FM282200 07007KT P6SM VCSH BKN025 OVC050
     FM290100 04007KT P6SM FEW020 SCT070=

USA.gov is the U.S. government's official web portal to all federal, state and local government web resources and services.